Time;durP1;ratioP1;P1;durP2;ratioP2;P2;SDS_P1;SDS_P2;PMS_P1;PMS_P2;Temp;Humidity;BMP_temperature;BMP_pressure;BME280_temperature;BME280_humidity;BME280_pressure;Samples;Min_cycle;Max_cycle;Signal;HPM_P1;HPM_P2
2022/09/25 00:01:41;;;;;;;0.00;0.00;;;;;;;16.54;65.02;97535.41;8384534;28;20231;-74
2022/09/25 00:05:45;;;;;;;0.00;0.00;;;;;;;16.55;65.14;97531.88;8384209;28;20227;-74
2022/09/25 00:09:49;;;;;;;0.00;0.00;;;;;;;16.52;65.45;97540.75;8383713;28;20227;-74
2022/09/25 00:13:52;;;;;;;0.00;0.00;;;;;;;16.57;65.11;97540.44;8383644;28;20240;-74
2022/09/25 00:17:55;;;;;;;0.00;0.00;;;;;;;16.54;65.45;97544.09;8383763;28;20234;-74
2022/09/25 00:21:58;;;;;;;0.00;0.00;;;;;;;16.48;65.75;97533.28;8383649;28;20258;-74
2022/09/25 00:26:02;;;;;;;0.00;0.00;;;;;;;16.44;65.96;97534.47;8383489;28;20464;-74
2022/09/25 00:30:05;;;;;;;0.00;0.00;;;;;;;16.44;66.16;97535.28;8383196;28;20231;-74
2022/09/25 00:34:08;;;;;;;0.00;0.00;;;;;;;16.42;66.17;97534.56;8383376;28;20541;-74
2022/09/25 00:38:11;;;;;;;0.00;0.00;;;;;;;16.33;66.48;97525.63;8383119;28;20283;-74
2022/09/25 00:42:19;;;;;;;0.00;0.00;;;;;;;16.45;66.03;97523.03;8382294;28;20238;-73
2022/09/25 00:46:26;;;;;;;0.00;0.00;;;;;;;16.38;66.61;97517.47;8382859;28;20305;-72
2022/09/25 00:50:32;;;;;;;0.00;0.00;;;;;;;16.48;66.44;97522.81;8382196;28;20259;-73
2022/09/25 00:54:38;;;;;;;0.00;0.00;;;;;;;16.53;66.02;97515.47;8382469;28;20246;-72
2022/09/25 00:58:42;;;;;;;0.00;0.00;;;;;;;16.50;66.79;97518.31;8382108;28;20558;-72
2022/09/25 01:02:48;;;;;;;0.00;0.00;;;;;;;16.34;67.42;97522.06;8381870;28;20246;-72
2022/09/25 01:06:51;;;;;;;0.00;0.00;;;;;;;16.42;67.09;97519.72;8382071;28;20353;-73
2022/09/25 01:10:55;;;;;;;0.00;0.00;;;;;;;16.29;67.79;97511.13;8381957;28;20237;-73
2022/09/25 01:15:00;;;;;;;0.00;0.00;;;;;;;16.40;67.74;97510.34;8381844;28;20249;-73
2022/09/25 01:19:12;;;;;;;0.00;0.00;;;;;;;16.42;67.74;97513.66;8381781;28;20231;-73
2022/09/25 01:23:20;;;;;;;0.00;0.00;;;;;;;16.39;67.36;97511.25;8381507;28;20533;-73
2022/09/25 01:27:36;;;;;;;0.00;0.00;;;;;;;16.45;67.75;97517.81;8381407;28;20227;-73
2022/09/25 01:31:43;;;;;;;0.00;0.00;;;;;;;16.44;67.58;97510.94;8381077;28;20231;-73
2022/09/25 01:35:49;;;;;;;0.00;0.00;;;;;;;16.39;67.74;97506.91;8381310;28;20276;-75
2022/09/25 01:39:58;;;;;;;0.00;0.00;;;;;;;16.37;67.68;97498.34;8381290;28;20231;-74
2022/09/25 01:44:05;;;;;;;0.00;0.00;;;;;;;16.41;67.36;97489.31;8381140;28;20405;-74
2022/09/25 01:48:10;;;;;;;0.00;0.00;;;;;;;16.46;67.69;97498.59;8381108;28;20250;-74
2022/09/25 01:52:15;;;;;;;0.00;0.00;;;;;;;16.52;67.48;97495.50;8380708;28;20230;-74
2022/09/25 01:56:21;;;;;;;0.00;0.00;;;;;;;16.49;67.67;97487.91;8379963;28;20235;-74
2022/09/25 02:00:26;;;;;;;0.00;0.00;;;;;;;16.42;67.57;97490.97;8380690;28;20227;-74
2022/09/25 02:04:32;;;;;;;0.00;0.00;;;;;;;16.39;67.91;97485.13;8380214;28;20301;-75
2022/09/25 02:08:38;;;;;;;0.00;0.00;;;;;;;16.35;68.31;97492.38;8380484;28;20235;-75
2022/09/25 02:12:45;;;;;;;0.00;0.00;;;;;;;16.29;68.70;97486.78;8380578;28;20235;-74
2022/09/25 02:16:51;;;;;;;0.00;0.00;;;;;;;16.31;68.52;97487.50;8380269;28;20231;-74
2022/09/25 02:20:59;;;;;;;0.00;0.00;;;;;;;16.39;67.84;97482.53;8380160;28;20246;-74
2022/09/25 02:25:07;;;;;;;0.00;0.00;;;;;;;16.41;67.81;97478.88;8380366;28;20289;-75
2022/09/25 02:29:09;;;;;;;0.00;0.00;;;;;;;16.39;67.84;97478.16;8379857;28;20238;-75
2022/09/25 02:33:12;;;;;;;0.00;0.00;;;;;;;16.32;68.30;97470.88;8380220;28;20239;-74
2022/09/25 02:37:17;;;;;;;0.00;0.00;;;;;;;16.33;68.29;97475.97;8380124;28;20227;-74
2022/09/25 02:41:30;;;;;;;0.00;0.00;;;;;;;16.38;68.00;97475.66;8379942;28;20535;-75
2022/09/25 02:45:37;;;;;;;0.00;0.00;;;;;;;16.29;68.31;97476.34;8379519;28;20259;-74
2022/09/25 02:49:47;;;;;;;0.00;0.00;;;;;;;16.34;67.75;97467.22;8379854;28;20238;-74
2022/09/25 02:53:55;;;;;;;0.00;0.00;;;;;;;16.34;67.91;97471.59;8379813;28;20238;-74
2022/09/25 02:58:01;;;;;;;0.00;0.00;;;;;;;16.35;67.79;97475.88;8379643;28;20293;-75
2022/09/25 03:02:04;;;;;;;0.00;0.00;;;;;;;16.35;67.93;97481.91;8379573;28;20399;-74
2022/09/25 03:06:08;;;;;;;0.00;0.00;;;;;;;16.28;68.29;97482.50;8383032;28;20269;-74
2022/09/25 03:10:12;;;;;;;0.00;0.00;;;;;;;16.32;68.11;97481.34;8385893;28;20251;-75
2022/09/25 03:14:15;;;;;;;0.00;0.00;;;;;;;16.27;68.11;97488.69;8385723;28;20231;-75
2022/09/25 03:18:18;;;;;;;0.00;0.00;;;;;;;16.16;69.29;97479.03;8385634;28;20227;-75
2022/09/25 03:22:21;;;;;;;0.00;0.00;;;;;;;16.19;68.57;97484.88;8385505;28;20235;-75
2022/09/25 03:26:26;;;;;;;0.00;0.00;;;;;;;15.97;69.82;97490.88;8385365;28;20273;-74
2022/09/25 03:30:29;;;;;;;0.00;0.00;;;;;;;16.07;69.44;97493.63;8384725;28;20395;-74
2022/09/25 03:34:32;;;;;;;0.00;0.00;;;;;;;16.14;69.08;97484.38;8384950;28;20242;-74
2022/09/25 03:38:34;;;;;;;0.00;0.00;;;;;;;16.19;68.81;97486.66;8384973;28;20406;-74
2022/09/25 03:42:39;;;;;;;0.00;0.00;;;;;;;15.99;69.91;97488.97;8384969;28;20278;-74
2022/09/25 03:46:41;;;;;;;0.00;0.00;;;;;;;15.95;69.99;97484.06;8384853;28;20439;-74
2022/09/25 03:50:45;;;;;;;0.00;0.00;;;;;;;16.05;69.31;97477.25;8384813;28;20458;-75
2022/09/25 03:54:48;;;;;;;0.00;0.00;;;;;;;15.73;70.87;97480.44;8384453;28;20223;-74
2022/09/25 03:58:53;;;;;;;0.00;0.00;;;;;;;15.94;69.40;97464.16;8384090;28;20234;-75
2022/09/25 04:02:58;;;;;;;0.00;0.00;;;;;;;16.02;69.22;97465.22;8384319;28;20453;-74
2022/09/25 04:07:00;;;;;;;0.00;0.00;;;;;;;15.93;69.75;97462.47;8384293;28;20417;-74
2022/09/25 04:11:04;;;;;;;0.00;0.00;;;;;;;16.06;69.36;97462.41;8384032;28;20231;-74
2022/09/25 04:15:10;;;;;;;0.00;0.00;;;;;;;15.80;70.15;97468.59;8383968;28;20245;-75
2022/09/25 04:19:14;;;;;;;0.00;0.00;;;;;;;15.97;69.33;97466.50;8382925;28;20463;-74
2022/09/25 04:23:17;;;;;;;0.00;0.00;;;;;;;16.11;68.80;97461.09;8383617;28;20564;-75
2022/09/25 04:27:22;;;;;;;0.00;0.00;;;;;;;16.07;68.91;97466.66;8383564;28;20258;-75
2022/09/25 04:31:26;;;;;;;0.00;0.00;;;;;;;16.14;68.70;97455.63;8383304;28;20239;-75
2022/09/25 04:35:28;;;;;;;0.00;0.00;;;;;;;16.12;68.85;97459.31;8382866;28;20231;-74
2022/09/25 04:39:31;;;;;;;0.00;0.00;;;;;;;16.18;68.80;97464.06;8383329;28;20234;-74
2022/09/25 04:43:34;;;;;;;0.00;0.00;;;;;;;16.21;68.47;97458.63;8383223;28;20240;-75
2022/09/25 04:47:38;;;;;;;0.00;0.00;;;;;;;16.13;68.49;97467.03;8383076;28;20231;-74
2022/09/25 04:51:41;;;;;;;0.00;0.00;;;;;;;15.88;69.23;97465.44;8382823;28;20231;-74
2022/09/25 04:55:44;;;;;;;0.00;0.00;;;;;;;15.98;68.94;97471.63;8382922;28;20466;-75
2022/09/25 04:59:47;;;;;;;0.00;0.00;;;;;;;16.03;69.25;97459.06;8382782;28;20227;-74
2022/09/25 05:03:52;;;;;;;0.00;0.00;;;;;;;15.78;69.53;97467.03;8382336;28;20231;-75
2022/09/25 05:07:56;;;;;;;0.00;0.00;;;;;;;15.68;70.24;97461.63;8382285;28;20325;-74
2022/09/25 05:11:59;;;;;;;0.00;0.00;;;;;;;15.74;70.09;97463.00;8381880;28;20227;-75
2022/09/25 05:16:04;;;;;;;0.00;0.00;;;;;;;15.99;68.97;97462.00;8381848;28;20243;-75
2022/09/25 05:20:10;;;;;;;0.00;0.00;;;;;;;15.71;69.55;97457.97;8381777;28;20231;-75
2022/09/25 05:24:13;;;;;;;0.00;0.00;;;;;;;15.87;69.70;97460.31;8381407;28;20246;-74
2022/09/25 05:28:15;;;;;;;0.00;0.00;;;;;;;15.83;69.51;97452.69;8380960;28;20228;-74
2022/09/25 05:32:18;;;;;;;0.00;0.00;;;;;;;15.98;69.28;97450.72;8381571;28;20446;-75
2022/09/25 05:36:23;;;;;;;0.00;0.00;;;;;;;16.02;69.06;97454.78;8381517;28;20238;-74
2022/09/25 05:40:26;;;;;;;0.10;0.10;;;;;;;15.99;69.09;97451.56;8380963;28;20231;-74
2022/09/25 05:44:29;;;;;;;0.00;0.00;;;;;;;15.88;69.93;97460.22;8381024;28;20247;-74
2022/09/25 05:48:31;;;;;;;0.00;0.00;;;;;;;15.92;69.35;97458.19;8381111;28;20240;-74
2022/09/25 05:52:35;;;;;;;0.00;0.00;;;;;;;15.99;69.33;97451.56;8380771;28;20453;-75
2022/09/25 05:56:38;;;;;;;0.00;0.00;;;;;;;15.76;70.24;97448.91;8380821;28;20223;-74
2022/09/25 06:00:41;;;;;;;0.00;0.00;;;;;;;16.08;69.02;97456.09;8380726;28;20430;-76
2022/09/25 06:04:44;;;;;;;0.00;0.00;;;;;;;16.05;68.69;97448.50;8380677;28;20464;-75
2022/09/25 06:08:48;;;;;;;0.00;0.00;;;;;;;16.18;68.55;97453.63;8380751;28;20238;-75
2022/09/25 06:12:53;;;;;;;0.00;0.00;;;;;;;15.21;72.74;97447.63;8380530;28;20224;-76
2022/09/25 06:16:57;;;;;;;0.00;0.00;;;;;;;15.81;70.13;97451.97;8380452;28;20276;-76
2022/09/25 06:21:01;;;;;;;0.00;0.00;;;;;;;15.76;69.97;97456.72;8380472;28;20234;-75
2022/09/25 06:25:06;;;;;;;0.00;0.00;;;;;;;15.47;71.77;97458.81;8380431;28;20243;-75
2022/09/25 06:29:11;;;;;;;0.00;0.00;;;;;;;15.70;70.21;97454.50;8380088;28;20242;-74
2022/09/25 06:33:14;;;;;;;0.00;0.00;;;;;;;15.92;69.59;97458.19;8380189;28;20257;-75
2022/09/25 06:37:17;;;;;;;0.00;0.00;;;;;;;15.97;68.78;97449.09;8380369;28;20227;-75
2022/09/25 06:41:21;;;;;;;0.00;0.00;;;;;;;15.72;70.19;97455.22;8383972;28;20234;-75
2022/09/25 06:45:25;;;;;;;0.00;0.00;;;;;;;15.64;70.64;97453.19;8386601;28;20242;-75
2022/09/25 06:49:28;;;;;;;0.00;0.00;;;;;;;15.61;70.01;97463.00;8386252;28;20226;-74
2022/09/25 06:53:31;;;;;;;0.00;0.00;;;;;;;15.63;70.75;97467.19;8386250;28;20246;-76
2022/09/25 06:57:36;;;;;;;0.00;0.00;;;;;;;15.49;70.69;97469.13;8386375;28;20232;-75
2022/09/25 07:01:39;;;;;;;0.00;0.00;;;;;;;15.92;69.52;97468.66;8386289;28;20258;-76
2022/09/25 07:05:43;;;;;;;0.00;0.00;;;;;;;15.73;70.10;97467.38;8386104;28;20235;-75
2022/09/25 07:09:47;;;;;;;0.00;0.00;;;;;;;16.06;69.60;97480.69;8385914;28;20526;-76
2022/09/25 07:13:53;;;;;;;0.00;0.00;;;;;;;15.75;69.71;97478.53;8385874;28;20293;-75
2022/09/25 07:18:05;;;;;;;0.00;0.00;;;;;;;15.60;71.06;97477.03;8386074;28;20231;-75
2022/09/25 07:22:07;;;;;;;0.00;0.00;;;;;;;15.83;70.16;97477.97;8385681;28;20231;-75
2022/09/25 07:26:12;;;;;;;0.00;0.00;;;;;;;15.71;70.53;97476.25;8385675;28;20230;-76
2022/09/25 07:30:16;;;;;;;0.00;0.00;;;;;;;15.54;71.13;97480.91;8385385;28;20235;-75
2022/09/25 07:34:19;;;;;;;0.00;0.00;;;;;;;15.61;71.08;97476.91;8385311;28;20497;-75
2022/09/25 07:38:21;;;;;;;0.00;0.00;;;;;;;15.80;70.03;97476.44;8385331;28;20282;-75
2022/09/25 07:42:24;;;;;;;0.00;0.00;;;;;;;15.31;71.73;97474.72;8385131;28;20557;-75
2022/09/25 07:46:30;;;;;;;0.00;0.00;;;;;;;15.57;70.87;97472.00;8384471;28;20242;-75
2022/09/25 07:50:33;;;;;;;0.00;0.00;;;;;;;15.58;71.09;97471.91;8385125;28;20530;-75
2022/09/25 07:54:36;;;;;;;0.00;0.00;;;;;;;15.95;70.56;97477.06;8385194;28;20426;-75
2022/09/25 07:58:39;;;;;;;0.00;0.00;;;;;;;16.02;70.29;97480.06;8384910;28;20426;-76
2022/09/25 08:02:43;;;;;;;0.00;0.00;;;;;;;15.78;71.06;97480.94;8384743;28;20235;-75
2022/09/25 08:06:46;;;;;;;0.00;0.00;;;;;;;16.08;71.13;97478.78;8384389;28;20234;-76
2022/09/25 08:10:49;;;;;;;0.00;0.00;;;;;;;16.17;70.00;97476.31;8384425;28;20293;-76
2022/09/25 08:14:51;;;;;;;0.00;0.00;;;;;;;16.00;71.52;97479.34;8384221;28;20238;-76
2022/09/25 08:18:55;;;;;;;0.00;0.00;;;;;;;15.96;71.33;97481.34;8384169;28;20247;-76
2022/09/25 08:22:58;;;;;;;0.00;0.00;;;;;;;16.01;71.85;97481.84;8383826;28;20232;-77
2022/09/25 08:27:01;;;;;;;0.00;0.00;;;;;;;16.28;71.66;97485.09;8383737;28;20235;-76
2022/09/25 08:31:03;;;;;;;0.00;0.00;;;;;;;16.33;71.01;97478.59;8383655;28;20231;-76
2022/09/25 08:35:09;;;;;;;0.00;0.00;;;;;;;16.54;69.21;97480.53;8383730;28;20231;-75
2022/09/25 08:39:11;;;;;;;0.00;0.00;;;;;;;16.65;68.94;97479.72;8383438;28;20231;-76
2022/09/25 08:43:18;;;;;;;0.00;0.00;;;;;;;16.54;69.19;97480.53;8383233;28;20238;-76
2022/09/25 08:51:48;;;;;;;0.00;0.00;;;;;;;17.00;68.05;97461.31;8382646;28;20235;-76
2022/09/25 09:00:19;;;;;;;0.00;0.00;;;;;;;17.05;67.04;97463.56;8382774;28;20236;-76
2022/09/25 09:04:26;;;;;;;0.00;0.00;;;;;;;17.07;68.33;97464.28;8382261;28;20239;-75
2022/09/25 09:08:32;;;;;;;0.00;0.00;;;;;;;16.88;67.95;97457.03;8382180;28;20273;-76
2022/09/25 09:12:38;;;;;;;0.00;0.00;;;;;;;16.74;68.82;97465.94;8382424;28;20276;-76
2022/09/25 09:16:45;;;;;;;0.00;0.00;;;;;;;16.96;68.17;97458.13;8382219;28;20247;-75
2022/09/25 09:20:51;;;;;;;0.00;0.00;;;;;;;16.89;68.20;97449.09;8382174;28;20231;-76
2022/09/25 09:25:01;;;;;;;0.00;0.00;;;;;;;17.39;66.69;97443.41;8381925;28;20231;-75
2022/09/25 09:29:26;;;;;;;0.00;0.00;;;;;;;17.58;65.77;97438.34;8381672;28;20427;-75
2022/09/25 09:33:40;;;;;;;0.00;0.00;;;;;;;18.94;61.77;97438.38;8381366;28;20404;-74
2022/09/25 09:37:49;;;;;;;0.00;0.00;;;;;;;19.81;59.03;97436.03;8381438;28;20239;-75
2022/09/25 09:42:01;;;;;;;0.00;0.00;;;;;;;18.73;61.06;97440.19;8381513;28;20230;-75
2022/09/25 09:46:14;;;;;;;0.00;0.00;;;;;;;18.59;62.45;97433.50;8381301;28;20238;-76
2022/09/25 09:50:35;;;;;;;0.00;0.00;;;;;;;17.86;63.83;97433.50;8381297;28;20232;-75
2022/09/25 09:54:47;;;;;;;0.00;0.00;;;;;;;17.58;64.87;97437.50;8381057;28;20418;-75
2022/09/25 09:58:54;;;;;;;0.00;0.00;;;;;;;17.47;65.81;97424.47;8380770;28;20223;-74
2022/09/25 10:02:59;;;;;;;0.00;0.00;;;;;;;17.64;65.15;97425.72;8380775;28;20431;-75
2022/09/25 10:07:05;;;;;;;0.00;0.00;;;;;;;17.73;64.54;97411.88;8380772;28;20235;-76
2022/09/25 10:11:14;;;;;;;0.00;0.00;;;;;;;17.72;64.38;97413.63;8380708;28;20238;-76
2022/09/25 10:15:27;;;;;;;0.00;0.00;;;;;;;17.91;63.70;97412.97;8379605;28;20254;-75
2022/09/25 10:19:36;;;;;;;0.00;0.00;;;;;;;17.68;64.80;97409.63;8380189;28;20424;-75
2022/09/25 10:23:41;;;;;;;0.00;0.00;;;;;;;17.81;64.97;97398.97;8380499;28;20438;-76
2022/09/25 10:27:45;;;;;;;0.00;0.00;;;;;;;17.92;65.33;97404.19;8380503;28;20239;-74
2022/09/25 10:31:57;;;;;;;0.00;0.00;;;;;;;17.92;66.05;97395.50;8380406;28;20227;-75
2022/09/25 10:36:00;;;;;;;0.00;0.00;;;;;;;17.97;66.14;97403.78;8380335;28;20227;-77
2022/09/25 10:40:06;;;;;;;0.00;0.00;;;;;;;17.73;66.28;97415.31;8380270;28;20227;-76
2022/09/25 10:44:21;;;;;;;0.00;0.00;;;;;;;17.46;65.24;97414.94;8380211;28;20243;-75
2022/09/25 10:52:52;;;;;;;0.00;0.00;;;;;;;17.19;64.26;97417.06;8379974;28;20227;-76
2022/09/25 10:56:55;;;;;;;0.00;0.00;;;;;;;17.28;64.17;97419.88;8380234;28;20223;-76
2022/09/25 11:01:00;;;;;;;0.00;0.00;;;;;;;17.25;64.73;97433.19;8380051;28;20228;-77
2022/09/25 11:05:07;;;;;;;0.00;0.00;;;;;;;17.19;64.89;97427.53;8380232;28;20235;-77
2022/09/25 11:09:13;;;;;;;0.00;0.00;;;;;;;17.12;65.03;97428.97;8380082;28;20273;-76
2022/09/25 11:13:21;;;;;;;0.00;0.00;;;;;;;17.05;65.58;97430.41;8379785;28;20649;-75
2022/09/25 11:17:32;;;;;;;0.00;0.00;;;;;;;16.98;65.58;97432.69;8379790;28;20235;-76
2022/09/25 11:21:42;;;;;;;0.00;0.00;;;;;;;17.34;70.24;97437.69;8379385;28;20514;-85
2022/09/25 11:25:48;;;;;;;0.00;0.00;;;;;;;18.24;66.69;97426.00;8381274;28;20243;-81
2022/09/25 11:29:59;;;;;;;0.00;0.00;;;;;;;18.39;64.22;97418.63;8385455;28;20231;-81
2022/09/25 11:34:10;;;;;;;0.00;0.00;;;;;;;18.30;62.16;97426.34;8385631;28;20223;-79
2022/09/25 11:41:10;;;;;;;0.00;0.00;;;;;;;18.24;62.97;97426.00;8385648;28;20320;-78
2022/09/25 11:42:47;;;;;;;0.00;0.00;;;;;;;18.42;63.07;97419.22;8387669;28;20346;-76
2022/09/25 11:46:55;;;;;;;0.00;0.00;;;;;;;19.20;62.52;97422.13;8385367;28;20231;-76
2022/09/25 11:51:04;;;;;;;0.00;0.00;;;;;;;19.21;62.18;97422.97;8385204;28;20224;-78
2022/09/25 11:55:20;;;;;;;0.00;0.00;;;;;;;19.35;62.13;97417.31;8384748;28;20555;-78
2022/09/25 11:59:37;;;;;;;0.00;0.00;;;;;;;18.98;62.50;97417.94;8384579;28;20235;-78
2022/09/25 12:03:52;;;;;;;0.00;0.00;;;;;;;18.64;63.55;97417.38;8384334;28;20231;-78
2022/09/25 12:08:09;;;;;;;0.00;0.00;;;;;;;18.49;64.46;97417.75;8384519;28;20235;-78
2022/09/25 12:12:23;;;;;;;0.00;0.00;;;;;;;18.30;64.73;97413.22;8384656;28;20529;-78
2022/09/25 12:16:32;;;;;;;0.00;0.00;;;;;;;18.08;65.14;97406.34;8384294;28;20237;-76
2022/09/25 12:20:40;;;;;;;0.00;0.00;;;;;;;17.91;65.04;97402.50;8384362;28;20546;-79
2022/09/25 12:24:55;;;;;;;0.00;0.00;;;;;;;17.95;65.26;97395.22;8383872;28;20239;-78
2022/09/25 12:29:10;;;;;;;0.00;0.00;;;;;;;18.13;66.59;97395.47;8383970;28;20420;-81
2022/09/25 12:33:22;;;;;;;0.00;0.00;;;;;;;18.05;65.30;97404.00;8384052;28;20227;-78
2022/09/25 12:37:32;;;;;;;0.00;0.00;;;;;;;18.13;65.08;97405.97;8383204;28;20468;-79
2022/09/25 12:41:40;;;;;;;0.00;0.00;;;;;;;18.15;64.64;97404.03;8383036;28;20224;-80
2022/09/25 12:45:48;;;;;;;0.00;0.00;;;;;;;18.22;64.97;97394.72;8383213;28;20236;-80
2022/09/25 12:49:56;;;;;;;0.00;0.00;;;;;;;18.12;64.91;97392.00;8383092;28;20234;-80
2022/09/25 12:54:01;;;;;;;0.00;0.00;;;;;;;18.09;64.46;97391.47;8383107;28;20522;-79
2022/09/25 12:58:11;;;;;;;0.00;0.00;;;;;;;17.84;64.08;97393.50;8382929;28;20231;-79
2022/09/25 13:02:21;;;;;;;0.00;0.00;;;;;;;17.46;65.48;97387.00;8382835;28;20410;-82
2022/09/25 13:06:30;;;;;;;0.00;0.00;;;;;;;17.54;65.72;97400.28;8382415;28;20541;-81
2022/09/25 13:10:37;;;;;;;0.00;0.00;;;;;;;17.46;66.34;97397.47;8382155;28;20470;-79
2022/09/25 13:14:44;;;;;;;0.00;0.00;;;;;;;17.60;66.98;97396.34;8382102;28;20239;-80
2022/09/25 13:19:08;;;;;;;0.00;0.00;;;;;;;17.71;66.75;97390.22;8382071;28;20234;-79
2022/09/25 13:23:14;;;;;;;0.00;0.00;;;;;;;17.57;66.45;97396.56;8382094;28;20243;-79
2022/09/25 13:27:21;;;;;;;0.00;0.00;;;;;;;17.31;67.17;97399.53;8382019;28;20231;-78
2022/09/25 13:31:26;;;;;;;0.00;0.00;;;;;;;17.59;65.90;97397.28;8381673;28;20266;-78
2022/09/25 13:35:31;;;;;;;0.00;0.00;;;;;;;17.59;65.85;97378.94;8381163;28;20238;-78
2022/09/25 13:44:38;;;;;;;0.00;0.00;;;;;;;18.29;64.71;97371.41;8381702;28;20234;-78
2022/09/25 13:48:41;;;;;;;0.00;0.00;;;;;;;18.34;64.02;97369.25;8380959;28;20231;-80
2022/09/25 13:53:20;;;;;;;0.00;0.00;;;;;;;18.39;62.90;97359.19;8381248;28;20242;-79
2022/09/25 13:57:57;;;;;;;0.00;0.00;;;;;;;18.29;64.30;97367.00;8381175;28;20242;-78
2022/09/25 14:02:32;;;;;;;0.00;0.00;;;;;;;18.22;64.17;97362.41;8380675;28;20421;-78
2022/09/25 14:06:37;;;;;;;0.00;0.00;;;;;;;18.14;65.15;97368.31;8380417;28;20406;-79
2022/09/25 14:10:45;;;;;;;0.00;0.00;;;;;;;18.16;65.53;97361.16;8381050;28;20235;-78
2022/09/25 14:14:54;;;;;;;0.00;0.00;;;;;;;18.31;65.35;97372.13;8380681;28;20232;-79
2022/09/25 14:18:58;;;;;;;0.00;0.00;;;;;;;18.18;65.48;97364.47;8381014;28;20503;-79
2022/09/25 14:23:03;;;;;;;0.00;0.00;;;;;;;18.12;65.37;97362.38;8380570;28;20235;-79
2022/09/25 14:27:20;;;;;;;0.00;0.00;;;;;;;18.12;64.94;97352.72;8380333;28;20240;-79
2022/09/25 14:31:42;;;;;;;0.00;0.00;;;;;;;18.01;65.57;97362.44;8380297;28;20593;-81
2022/09/25 14:35:50;;;;;;;0.00;0.00;;;;;;;17.94;66.16;97359.53;8380092;28;20239;-81
2022/09/25 14:39:59;;;;;;;0.00;0.00;;;;;;;18.08;66.52;97353.13;8379984;28;20273;-79
2022/09/25 14:44:35;;;;;;;0.00;0.00;;;;;;;18.43;65.86;97351.88;8380092;28;20231;-80
2022/09/25 14:48:42;;;;;;;0.00;0.00;;;;;;;18.45;65.77;97348.19;8379671;28;20235;-83
2022/09/25 14:52:46;;;;;;;0.00;0.00;;;;;;;18.49;66.17;97341.72;8379961;28;20228;-81
2022/09/25 14:56:51;;;;;;;0.00;0.00;;;;;;;18.27;66.12;97347.97;8380264;28;20228;-84
2022/09/25 15:00:57;;;;;;;0.00;0.00;;;;;;;18.15;65.36;97352.47;8381621;28;20399;-82
2022/09/25 15:05:16;;;;;;;0.00;0.00;;;;;;;18.07;65.56;97341.81;8386399;28;20235;-83
2022/09/25 15:09:29;;;;;;;0.00;0.00;;;;;;;18.04;65.14;97342.06;8386354;28;20239;-81
2022/09/25 15:13:33;;;;;;;0.00;0.00;;;;;;;17.96;66.33;97336.66;8385614;28;20227;-78
2022/09/25 15:17:44;;;;;;;0.00;0.00;;;;;;;17.95;65.52;97335.81;8386105;28;20235;-80
2022/09/25 15:21:47;;;;;;;0.00;0.00;;;;;;;17.89;65.12;97328.47;8385969;28;20242;-79
2022/09/25 15:25:51;;;;;;;0.00;0.00;;;;;;;17.88;65.61;97326.81;8385828;28;20227;-81
2022/09/25 15:29:54;;;;;;;0.00;0.00;;;;;;;17.85;66.75;97324.44;8385206;28;20235;-80
2022/09/25 15:34:11;;;;;;;0.00;0.00;;;;;;;17.89;66.42;97328.47;8385628;28;20229;-81
2022/09/25 15:38:17;;;;;;;0.00;0.00;;;;;;;17.82;66.04;97324.69;8385309;28;20230;-81
2022/09/25 15:42:20;;;;;;;0.00;0.00;;;;;;;17.74;65.74;97324.47;8385279;28;20430;-83
2022/09/25 15:46:33;;;;;;;0.00;0.00;;;;;;;17.73;66.17;97322.84;8385235;28;20519;-82
2022/09/25 15:50:42;;;;;;;0.00;0.00;;;;;;;17.64;66.68;97320.97;8385361;28;20397;-82
2022/09/25 15:54:48;;;;;;;0.00;0.00;;;;;;;17.62;66.45;97325.53;8384979;28;20230;-81
2022/09/25 15:58:52;;;;;;;0.00;0.00;;;;;;;17.63;66.62;97321.94;8385207;28;20232;-80
2022/09/25 16:07:27;;;;;;;0.00;0.00;;;;;;;17.56;66.46;97313.78;8384932;28;20531;-79
2022/09/25 16:11:30;;;;;;;0.00;0.00;;;;;;;17.56;67.34;97311.97;8383896;28;20238;-80
2022/09/25 16:15:45;;;;;;;0.00;0.00;;;;;;;17.58;67.17;97306.63;8383905;28;20231;-81
2022/09/25 16:19:58;;;;;;;0.00;0.00;;;;;;;17.59;66.94;97316.13;8384732;28;20390;-81
2022/09/25 16:24:06;;;;;;;0.00;0.00;;;;;;;17.54;67.19;97310.44;8384346;28;20334;-81
2022/09/25 16:28:16;;;;;;;0.00;0.00;;;;;;;17.49;67.04;97317.84;8383428;28;20231;-83
2022/09/25 16:32:19;;;;;;;0.00;0.00;;;;;;;17.51;67.67;97316.75;8384229;28;20223;-81
2022/09/25 16:36:22;;;;;;;0.00;0.00;;;;;;;17.51;67.25;97324.59;8384453;28;20235;-80
2022/09/25 16:40:32;;;;;;;0.00;0.00;;;;;;;17.45;68.02;97322.50;8383542;28;20228;-79
2022/09/25 16:44:38;;;;;;;0.00;0.00;;;;;;;17.42;68.60;97320.16;8383372;28;20232;-82
2022/09/25 16:48:42;;;;;;;0.00;0.00;;;;;;;17.40;68.45;97319.41;8383399;28;20239;-84
2022/09/25 16:52:45;;;;;;;0.00;0.00;;;;;;;17.39;69.45;97318.59;8383212;28;20426;-86
2022/09/25 16:56:49;;;;;;;0.00;0.00;;;;;;;17.41;68.98;97325.50;8383253;28;20253;-84
2022/09/25 17:00:52;;;;;;;0.00;0.00;;;;;;;17.16;69.29;97319.66;8383107;28;20262;-85
2022/09/25 17:04:55;;;;;;;0.00;0.00;;;;;;;17.27;68.96;97326.63;8382848;28;20227;-84
2022/09/25 17:08:58;;;;;;;0.00;0.00;;;;;;;17.23;69.82;97333.06;8382867;28;20289;-86
2022/09/25 17:13:02;;;;;;;0.00;0.00;;;;;;;17.27;69.40;97331.84;8382789;28;20516;-83
2022/09/25 17:17:05;;;;;;;0.00;0.00;;;;;;;17.25;68.61;97334.63;8382792;28;20223;-82
2022/09/25 17:21:13;;;;;;;0.00;0.00;;;;;;;17.13;67.44;97333.81;8382141;28;20545;-85
2022/09/25 17:25:22;;;;;;;0.00;0.00;;;;;;;17.06;66.82;97326.59;8381940;28;20227;-84
2022/09/25 17:29:26;;;;;;;0.00;0.00;;;;;;;17.03;67.05;97327.66;8381863;28;20247;-85
2022/09/25 17:33:31;;;;;;;0.00;0.00;;;;;;;16.98;67.29;97332.44;8381457;28;20231;-84
2022/09/25 17:37:34;;;;;;;0.00;0.00;;;;;;;16.91;67.26;97336.53;8381588;28;20231;-85
2022/09/25 17:41:37;;;;;;;0.00;0.00;;;;;;;16.88;67.20;97342.81;8381334;28;20239;-82
2022/09/25 17:45:44;;;;;;;0.00;0.00;;;;;;;16.87;66.84;97346.38;8381714;28;20228;-84
2022/09/25 17:49:48;;;;;;;0.00;0.00;;;;;;;16.85;66.68;97344.84;8381629;28;20227;-84
2022/09/25 17:53:52;;;;;;;0.00;0.00;;;;;;;16.83;66.69;97347.59;8381692;28;20231;-84
2022/09/25 17:57:55;;;;;;;0.00;0.00;;;;;;;16.73;66.95;97346.63;8381417;28;20227;-85
2022/09/25 18:01:59;;;;;;;0.00;0.00;;;;;;;16.74;67.29;97346.50;8381352;28;20518;-84
2022/09/25 18:06:02;;;;;;;0.00;0.00;;;;;;;16.71;67.06;97354.56;8381439;28;20227;-85
2022/09/25 18:10:05;;;;;;;0.00;0.00;;;;;;;16.69;66.92;97353.88;8381538;28;20277;-84
2022/09/25 18:14:10;;;;;;;0.00;0.00;;;;;;;16.65;66.84;97360.28;8380919;28;20250;-85
2022/09/25 18:18:15;;;;;;;0.00;0.00;;;;;;;16.68;67.12;97361.81;8380814;28;20254;-82
2022/09/25 18:22:17;;;;;;;0.00;0.00;;;;;;;16.56;67.54;97371.47;8380774;28;20273;-84
2022/09/25 18:26:20;;;;;;;0.00;0.00;;;;;;;16.54;66.99;97382.03;8380729;28;20227;-81
2022/09/25 18:30:24;;;;;;;0.00;0.00;;;;;;;16.64;66.99;97376.94;8380550;28;20250;-84
2022/09/25 18:34:28;;;;;;;0.00;0.00;;;;;;;17.71;76.09;97382.38;8380171;28;20425;-78
2022/09/25 18:38:31;;;;;;;0.00;0.00;;;;;;;17.97;70.63;97380.19;8386717;28;20235;-78
2022/09/25 18:42:34;;;;;;;0.00;0.00;;;;;;;17.36;65.46;97386.06;8387278;28;20227;-80
2022/09/25 18:46:37;;;;;;;0.00;0.00;;;;;;;17.05;66.22;97387.72;8387161;28;20429;-79
2022/09/25 18:50:41;;;;;;;0.00;0.00;;;;;;;17.03;65.47;97387.00;8386961;28;20330;-75
2022/09/25 18:54:44;;;;;;;0.00;0.00;;;;;;;16.82;66.13;97392.97;8386571;28;20227;-75
2022/09/25 18:58:48;;;;;;;0.00;0.00;;;;;;;16.82;66.04;97387.75;8386552;28;20411;-74
2022/09/25 19:02:51;;;;;;;0.00;0.00;;;;;;;16.70;66.30;97391.31;8386498;28;20564;-75
2022/09/25 19:06:55;;;;;;;0.00;0.00;;;;;;;16.55;66.53;97391.56;8386599;28;20235;-74
2022/09/25 19:10:59;;;;;;;0.00;0.00;;;;;;;16.44;66.06;97382.88;8386323;28;20227;-74
2022/09/25 19:15:03;;;;;;;0.00;0.00;;;;;;;16.36;66.37;97375.63;8386135;28;20247;-75
2022/09/25 19:19:06;;;;;;;0.00;0.00;;;;;;;16.40;66.47;97387.50;8386320;28;20285;-74
2022/09/25 19:23:10;;;;;;;0.00;0.00;;;;;;;16.40;66.40;97380.50;8385942;28;20288;-73
2022/09/25 19:27:14;;;;;;;0.00;0.00;;;;;;;16.34;65.89;97383.59;8385699;28;20514;-74
2022/09/25 19:31:18;;;;;;;0.00;0.00;;;;;;;16.28;65.91;97388.44;8385708;28;20238;-74
2022/09/25 19:35:21;;;;;;;0.00;0.00;;;;;;;16.28;65.44;97388.44;8385619;28;20235;-74
2022/09/25 19:39:25;;;;;;;0.00;0.00;;;;;;;16.13;65.62;97382.63;8385658;28;20297;-75
2022/09/25 19:43:29;;;;;;;0.00;0.00;;;;;;;16.21;65.88;97386.31;8384935;28;20239;-73